sensor_id;sensor_type;location;lat;lon;timestamp;temperature;humidity
17565;DHT22;62994;52.126;5.596;2022-11-15T00:01:17;8.30;99.90
17565;DHT22;62994;52.126;5.596;2022-11-15T00:03:50;8.30;99.90
17565;DHT22;62994;52.126;5.596;2022-11-15T00:06:18;8.30;99.90
17565;DHT22;62994;52.126;5.596;2022-11-15T00:08:46;8.30;99.90
17565;DHT22;62994;52.126;5.596;2022-11-15T00:11:14;8.30;99.90
17565;DHT22;62994;52.126;5.596;2022-11-15T00:13:43;8.30;99.90
17565;DHT22;62994;52.126;5.596;2022-11-15T00:16:10;8.30;99.90
17565;DHT22;62994;52.126;5.596;2022-11-15T00:18:39;8.30;99.90
17565;DHT22;62994;52.126;5.596;2022-11-15T00:21:11;8.30;99.90
17565;DHT22;62994;52.126;5.596;2022-11-15T00:23:43;8.40;99.90
17565;DHT22;62994;52.126;5.596;2022-11-15T00:26:12;8.40;99.90
17565;DHT22;62994;52.126;5.596;2022-11-15T00:28:45;8.40;99.90
17565;DHT22;62994;52.126;5.596;2022-11-15T00:31:17;8.40;99.90
17565;DHT22;62994;52.126;5.596;2022-11-15T00:33:45;8.40;99.90
17565;DHT22;62994;52.126;5.596;2022-11-15T00:36:16;8.50;99.90
17565;DHT22;62994;52.126;5.596;2022-11-15T00:38:45;8.40;99.90
17565;DHT22;62994;52.126;5.596;2022-11-15T00:41:12;8.40;99.90
17565;DHT22;62994;52.126;5.596;2022-11-15T00:43:39;8.50;99.90
17565;DHT22;62994;52.126;5.596;2022-11-15T00:46:09;8.50;99.90
17565;DHT22;62994;52.126;5.596;2022-11-15T00:48:38;8.50;99.90
17565;DHT22;62994;52.126;5.596;2022-11-15T00:51:08;8.50;99.90
17565;DHT22;62994;52.126;5.596;2022-11-15T00:53:40;8.60;99.90
17565;DHT22;62994;52.126;5.596;2022-11-15T00:56:07;8.60;99.90
17565;DHT22;62994;52.126;5.596;2022-11-15T00:58:39;8.60;99.90
17565;DHT22;62994;52.126;5.596;2022-11-15T01:01:07;8.60;99.90
17565;DHT22;62994;52.126;5.596;2022-11-15T01:03:37;8.60;99.90
17565;DHT22;62994;52.126;5.596;2022-11-15T01:06:05;8.60;99.90
17565;DHT22;62994;52.126;5.596;2022-11-15T01:08:34;8.70;99.90
17565;DHT22;62994;52.126;5.596;2022-11-15T01:11:08;8.60;99.90
17565;DHT22;62994;52.126;5.596;2022-11-15T01:13:36;8.80;99.90
17565;DHT22;62994;52.126;5.596;2022-11-15T01:16:09;8.90;99.90
17565;DHT22;62994;52.126;5.596;2022-11-15T01:18:37;9.00;99.90
17565;DHT22;62994;52.126;5.596;2022-11-15T01:23:53;8.90;99.90
17565;DHT22;62994;52.126;5.596;2022-11-15T01:26:22;8.90;99.90
17565;DHT22;62994;52.126;5.596;2022-11-15T01:28:49;8.90;99.90
17565;DHT22;62994;52.126;5.596;2022-11-15T01:31:18;8.80;99.90
17565;DHT22;62994;52.126;5.596;2022-11-15T01:33:46;8.80;99.90
17565;DHT22;62994;52.126;5.596;2022-11-15T01:36:15;8.80;99.90
17565;DHT22;62994;52.126;5.596;2022-11-15T01:38:44;8.90;99.90
17565;DHT22;62994;52.126;5.596;2022-11-15T01:41:18;8.80;99.90
17565;DHT22;62994;52.126;5.596;2022-11-15T01:43:47;8.80;99.90
17565;DHT22;62994;52.126;5.596;2022-11-15T01:46:24;8.80;99.90
17565;DHT22;62994;52.126;5.596;2022-11-15T01:48:53;8.90;99.90
17565;DHT22;62994;52.126;5.596;2022-11-15T01:51:25;8.90;99.90
17565;DHT22;62994;52.126;5.596;2022-11-15T01:53:56;8.90;99.90
17565;DHT22;62994;52.126;5.596;2022-11-15T01:56:27;8.90;99.90
17565;DHT22;62994;52.126;5.596;2022-11-15T01:58:56;8.90;99.90
17565;DHT22;62994;52.126;5.596;2022-11-15T02:01:24;9.00;99.90
17565;DHT22;62994;52.126;5.596;2022-11-15T02:03:56;9.00;99.90
17565;DHT22;62994;52.126;5.596;2022-11-15T02:06:24;9.00;99.90
17565;DHT22;62994;52.126;5.596;2022-11-15T02:08:53;9.00;99.90
17565;DHT22;62994;52.126;5.596;2022-11-15T02:11:22;9.00;99.90
17565;DHT22;62994;52.126;5.596;2022-11-15T02:13:54;9.10;99.90
17565;DHT22;62994;52.126;5.596;2022-11-15T02:16:30;9.10;99.90
17565;DHT22;62994;52.126;5.596;2022-11-15T02:19:14;9.10;99.90
17565;DHT22;62994;52.126;5.596;2022-11-15T02:21:49;9.10;99.90
17565;DHT22;62994;52.126;5.596;2022-11-15T02:24:49;9.20;99.90
17565;DHT22;62994;52.126;5.596;2022-11-15T02:27:42;9.20;99.90
17565;DHT22;62994;52.126;5.596;2022-11-15T02:30:24;9.20;99.90
17565;DHT22;62994;52.126;5.596;2022-11-15T02:32:57;9.20;99.90
17565;DHT22;62994;52.126;5.596;2022-11-15T02:35:30;9.20;99.90
17565;DHT22;62994;52.126;5.596;2022-11-15T02:38:07;9.30;99.90
17565;DHT22;62994;52.126;5.596;2022-11-15T02:40:40;9.30;99.90
17565;DHT22;62994;52.126;5.596;2022-11-15T02:43:11;9.30;99.90
17565;DHT22;62994;52.126;5.596;2022-11-15T02:46:02;9.30;99.90
17565;DHT22;62994;52.126;5.596;2022-11-15T02:48:31;9.30;99.90
17565;DHT22;62994;52.126;5.596;2022-11-15T02:50:59;9.40;99.90
17565;DHT22;62994;52.126;5.596;2022-11-15T02:53:27;9.40;99.90
17565;DHT22;62994;52.126;5.596;2022-11-15T02:55:56;9.40;99.90
17565;DHT22;62994;52.126;5.596;2022-11-15T03:01:32;9.50;99.90
17565;DHT22;62994;52.126;5.596;2022-11-15T03:04:10;9.60;99.90
17565;DHT22;62994;52.126;5.596;2022-11-15T03:06:47;9.60;99.90
17565;DHT22;62994;52.126;5.596;2022-11-15T03:09:23;9.60;99.90
17565;DHT22;62994;52.126;5.596;2022-11-15T03:11:56;9.60;99.90
17565;DHT22;62994;52.126;5.596;2022-11-15T03:14:27;9.60;99.90
17565;DHT22;62994;52.126;5.596;2022-11-15T03:17:02;9.60;99.90
17565;DHT22;62994;52.126;5.596;2022-11-15T03:19:40;9.70;99.90
17565;DHT22;62994;52.126;5.596;2022-11-15T03:22:12;9.70;99.90
17565;DHT22;62994;52.126;5.596;2022-11-15T03:24:42;9.70;99.90
17565;DHT22;62994;52.126;5.596;2022-11-15T03:27:14;9.70;99.90
17565;DHT22;62994;52.126;5.596;2022-11-15T03:29:44;9.70;99.90
17565;DHT22;62994;52.126;5.596;2022-11-15T03:32:18;9.80;99.90
17565;DHT22;62994;52.126;5.596;2022-11-15T03:34:49;9.80;99.90
17565;DHT22;62994;52.126;5.596;2022-11-15T03:37:20;9.90;99.90
17565;DHT22;62994;52.126;5.596;2022-11-15T03:39:47;9.90;99.90
17565;DHT22;62994;52.126;5.596;2022-11-15T03:42:20;10.00;99.90
17565;DHT22;62994;52.126;5.596;2022-11-15T03:44:52;10.00;99.90
17565;DHT22;62994;52.126;5.596;2022-11-15T03:47:27;10.00;99.90
17565;DHT22;62994;52.126;5.596;2022-11-15T03:50:07;10.00;99.90
17565;DHT22;62994;52.126;5.596;2022-11-15T03:52:35;10.00;99.90
17565;DHT22;62994;52.126;5.596;2022-11-15T03:55:05;10.10;99.90
17565;DHT22;62994;52.126;5.596;2022-11-15T03:57:33;10.10;99.90
17565;DHT22;62994;52.126;5.596;2022-11-15T04:00:00;10.10;99.90
17565;DHT22;62994;52.126;5.596;2022-11-15T04:02:28;10.20;99.90
17565;DHT22;62994;52.126;5.596;2022-11-15T04:04:56;10.20;99.90
17565;DHT22;62994;52.126;5.596;2022-11-15T04:07:23;10.20;99.90
17565;DHT22;62994;52.126;5.596;2022-11-15T04:09:50;10.20;99.90
17565;DHT22;62994;52.126;5.596;2022-11-15T04:12:29;10.20;99.90
17565;DHT22;62994;52.126;5.596;2022-11-15T04:15:00;10.30;99.90
17565;DHT22;62994;52.126;5.596;2022-11-15T04:17:36;10.30;99.90
17565;DHT22;62994;52.126;5.596;2022-11-15T04:20:06;10.30;99.90
17565;DHT22;62994;52.126;5.596;2022-11-15T04:22:52;10.40;99.90
17565;DHT22;62994;52.126;5.596;2022-11-15T04:25:37;10.40;99.90
17565;DHT22;62994;52.126;5.596;2022-11-15T04:28:04;10.40;99.90
17565;DHT22;62994;52.126;5.596;2022-11-15T04:30:31;10.40;99.90
17565;DHT22;62994;52.126;5.596;2022-11-15T04:32:59;10.40;99.90
17565;DHT22;62994;52.126;5.596;2022-11-15T04:35:27;10.50;99.90
17565;DHT22;62994;52.126;5.596;2022-11-15T04:37:54;10.50;99.90
17565;DHT22;62994;52.126;5.596;2022-11-15T04:40:22;10.50;99.90
17565;DHT22;62994;52.126;5.596;2022-11-15T04:42:49;10.60;99.90
17565;DHT22;62994;52.126;5.596;2022-11-15T04:45:16;10.60;99.90
17565;DHT22;62994;52.126;5.596;2022-11-15T04:47:43;10.60;99.90
17565;DHT22;62994;52.126;5.596;2022-11-15T04:50:13;10.60;99.90
17565;DHT22;62994;52.126;5.596;2022-11-15T04:52:41;10.60;99.90
17565;DHT22;62994;52.126;5.596;2022-11-15T04:55:08;10.70;99.90
17565;DHT22;62994;52.126;5.596;2022-11-15T04:57:36;10.70;99.90
17565;DHT22;62994;52.126;5.596;2022-11-15T05:00:04;10.70;99.90
17565;DHT22;62994;52.126;5.596;2022-11-15T05:02:31;10.80;99.90
17565;DHT22;62994;52.126;5.596;2022-11-15T05:05:14;10.80;99.90
17565;DHT22;62994;52.126;5.596;2022-11-15T05:07:41;10.80;99.90
17565;DHT22;62994;52.126;5.596;2022-11-15T05:10:08;10.80;99.90
17565;DHT22;62994;52.126;5.596;2022-11-15T05:12:36;10.80;99.90
17565;DHT22;62994;52.126;5.596;2022-11-15T05:15:03;10.80;99.90
17565;DHT22;62994;52.126;5.596;2022-11-15T05:17:30;10.80;99.90
17565;DHT22;62994;52.126;5.596;2022-11-15T05:19:57;10.80;99.90
17565;DHT22;62994;52.126;5.596;2022-11-15T05:22:26;10.80;99.90
17565;DHT22;62994;52.126;5.596;2022-11-15T05:24:53;10.80;99.90
17565;DHT22;62994;52.126;5.596;2022-11-15T05:27:20;10.80;99.90
17565;DHT22;62994;52.126;5.596;2022-11-15T05:29:47;10.90;99.90
17565;DHT22;62994;52.126;5.596;2022-11-15T05:32:14;10.90;99.90
17565;DHT22;62994;52.126;5.596;2022-11-15T05:34:43;10.90;99.90
17565;DHT22;62994;52.126;5.596;2022-11-15T05:37:10;10.90;99.90
17565;DHT22;62994;52.126;5.596;2022-11-15T05:39:39;11.00;99.90
17565;DHT22;62994;52.126;5.596;2022-11-15T05:42:09;11.00;99.90
17565;DHT22;62994;52.126;5.596;2022-11-15T05:44:38;11.00;99.90
17565;DHT22;62994;52.126;5.596;2022-11-15T05:47:09;11.00;99.90
17565;DHT22;62994;52.126;5.596;2022-11-15T05:49:39;11.00;99.90
17565;DHT22;62994;52.126;5.596;2022-11-15T05:52:10;11.00;99.90
17565;DHT22;62994;52.126;5.596;2022-11-15T05:54:39;11.00;99.90
17565;DHT22;62994;52.126;5.596;2022-11-15T05:57:12;11.00;99.90
17565;DHT22;62994;52.126;5.596;2022-11-15T05:59:40;11.10;99.90
17565;DHT22;62994;52.126;5.596;2022-11-15T06:02:09;11.10;99.90
17565;DHT22;62994;52.126;5.596;2022-11-15T06:04:36;11.10;99.90
17565;DHT22;62994;52.126;5.596;2022-11-15T06:07:03;11.10;99.90
17565;DHT22;62994;52.126;5.596;2022-11-15T06:09:30;11.10;99.90
17565;DHT22;62994;52.126;5.596;2022-11-15T06:11:58;11.10;99.90
17565;DHT22;62994;52.126;5.596;2022-11-15T06:14:25;11.10;99.90
17565;DHT22;62994;52.126;5.596;2022-11-15T06:16:53;11.10;99.90
17565;DHT22;62994;52.126;5.596;2022-11-15T06:19:20;11.20;99.90
17565;DHT22;62994;52.126;5.596;2022-11-15T06:21:47;11.20;99.90
17565;DHT22;62994;52.126;5.596;2022-11-15T06:24:13;11.20;99.90
17565;DHT22;62994;52.126;5.596;2022-11-15T06:26:41;11.20;99.90
17565;DHT22;62994;52.126;5.596;2022-11-15T06:29:09;11.30;99.90
17565;DHT22;62994;52.126;5.596;2022-11-15T06:31:36;11.20;99.90
17565;DHT22;62994;52.126;5.596;2022-11-15T06:34:03;11.20;99.90
17565;DHT22;62994;52.126;5.596;2022-11-15T06:36:30;11.30;99.90
17565;DHT22;62994;52.126;5.596;2022-11-15T06:38:57;11.20;99.90
17565;DHT22;62994;52.126;5.596;2022-11-15T06:41:24;11.30;99.90
17565;DHT22;62994;52.126;5.596;2022-11-15T06:43:51;11.30;99.90
17565;DHT22;62994;52.126;5.596;2022-11-15T06:46:20;11.30;99.90
17565;DHT22;62994;52.126;5.596;2022-11-15T06:48:47;11.30;99.90
17565;DHT22;62994;52.126;5.596;2022-11-15T06:51:15;11.40;99.90
17565;DHT22;62994;52.126;5.596;2022-11-15T06:53:42;11.40;99.90
17565;DHT22;62994;52.126;5.596;2022-11-15T06:56:09;11.40;99.90
17565;DHT22;62994;52.126;5.596;2022-11-15T06:58:36;11.40;99.90
17565;DHT22;62994;52.126;5.596;2022-11-15T07:01:05;11.50;99.90
17565;DHT22;62994;52.126;5.596;2022-11-15T07:03:34;11.50;99.90
17565;DHT22;62994;52.126;5.596;2022-11-15T07:06:02;11.50;99.90
17565;DHT22;62994;52.126;5.596;2022-11-15T07:08:29;11.50;99.90
17565;DHT22;62994;52.126;5.596;2022-11-15T07:10:58;11.50;99.90
17565;DHT22;62994;52.126;5.596;2022-11-15T07:13:27;11.50;99.90
17565;DHT22;62994;52.126;5.596;2022-11-15T07:15:55;11.60;99.90
17565;DHT22;62994;52.126;5.596;2022-11-15T07:18:22;11.60;99.90
17565;DHT22;62994;52.126;5.596;2022-11-15T07:20:50;11.60;99.90
17565;DHT22;62994;52.126;5.596;2022-11-15T07:23:17;11.60;99.90
17565;DHT22;62994;52.126;5.596;2022-11-15T07:25:44;11.60;99.90
17565;DHT22;62994;52.126;5.596;2022-11-15T07:28:11;11.60;99.90
17565;DHT22;62994;52.126;5.596;2022-11-15T07:30:38;11.60;99.90
17565;DHT22;62994;52.126;5.596;2022-11-15T07:33:05;11.60;99.90
17565;DHT22;62994;52.126;5.596;2022-11-15T07:35:32;11.70;99.90
17565;DHT22;62994;52.126;5.596;2022-11-15T07:38:02;11.70;99.90
17565;DHT22;62994;52.126;5.596;2022-11-15T07:40:30;11.70;99.90
17565;DHT22;62994;52.126;5.596;2022-11-15T07:43:01;11.70;99.90
17565;DHT22;62994;52.126;5.596;2022-11-15T07:45:29;11.80;99.90
17565;DHT22;62994;52.126;5.596;2022-11-15T07:47:56;11.70;99.90
17565;DHT22;62994;52.126;5.596;2022-11-15T07:50:24;11.70;99.90
17565;DHT22;62994;52.126;5.596;2022-11-15T07:52:54;11.70;99.90
17565;DHT22;62994;52.126;5.596;2022-11-15T07:55:23;11.70;99.90
17565;DHT22;62994;52.126;5.596;2022-11-15T07:57:51;11.70;99.90
17565;DHT22;62994;52.126;5.596;2022-11-15T08:00:18;11.70;99.90
17565;DHT22;62994;52.126;5.596;2022-11-15T08:02:45;11.70;99.90
17565;DHT22;62994;52.126;5.596;2022-11-15T08:05:13;11.80;99.90
17565;DHT22;62994;52.126;5.596;2022-11-15T08:07:40;11.80;99.90
17565;DHT22;62994;52.126;5.596;2022-11-15T08:10:08;11.80;99.90
17565;DHT22;62994;52.126;5.596;2022-11-15T08:12:36;11.80;99.90
17565;DHT22;62994;52.126;5.596;2022-11-15T08:15:04;11.80;99.90
17565;DHT22;62994;52.126;5.596;2022-11-15T08:17:31;11.80;99.90
17565;DHT22;62994;52.126;5.596;2022-11-15T08:19:59;11.80;99.90
17565;DHT22;62994;52.126;5.596;2022-11-15T08:22:27;11.90;99.90
17565;DHT22;62994;52.126;5.596;2022-11-15T08:24:54;11.90;99.90
17565;DHT22;62994;52.126;5.596;2022-11-15T08:27:21;11.90;99.90
17565;DHT22;62994;52.126;5.596;2022-11-15T08:29:50;11.90;99.90
17565;DHT22;62994;52.126;5.596;2022-11-15T08:32:17;11.90;99.90
17565;DHT22;62994;52.126;5.596;2022-11-15T08:34:44;11.90;99.90
17565;DHT22;62994;52.126;5.596;2022-11-15T08:37:11;11.90;99.90
17565;DHT22;62994;52.126;5.596;2022-11-15T08:39:38;12.00;99.90
17565;DHT22;62994;52.126;5.596;2022-11-15T08:42:05;12.00;99.90
17565;DHT22;62994;52.126;5.596;2022-11-15T08:44:32;12.00;99.90
17565;DHT22;62994;52.126;5.596;2022-11-15T08:47:00;12.00;99.90
17565;DHT22;62994;52.126;5.596;2022-11-15T08:49:27;12.00;99.90
17565;DHT22;62994;52.126;5.596;2022-11-15T08:51:54;12.00;99.90
17565;DHT22;62994;52.126;5.596;2022-11-15T08:54:20;12.00;99.90
17565;DHT22;62994;52.126;5.596;2022-11-15T08:56:48;12.00;99.90
17565;DHT22;62994;52.126;5.596;2022-11-15T08:59:14;12.10;99.90
17565;DHT22;62994;52.126;5.596;2022-11-15T09:01:41;12.10;99.90
17565;DHT22;62994;52.126;5.596;2022-11-15T09:04:10;12.10;99.90
17565;DHT22;62994;52.126;5.596;2022-11-15T09:06:37;12.10;99.90
17565;DHT22;62994;52.126;5.596;2022-11-15T09:09:04;12.10;99.90
17565;DHT22;62994;52.126;5.596;2022-11-15T09:11:31;12.10;99.90
17565;DHT22;62994;52.126;5.596;2022-11-15T09:13:58;12.10;99.90
17565;DHT22;62994;52.126;5.596;2022-11-15T09:16:25;12.10;99.90
17565;DHT22;62994;52.126;5.596;2022-11-15T09:18:53;12.20;99.90
17565;DHT22;62994;52.126;5.596;2022-11-15T09:21:22;12.20;99.90
17565;DHT22;62994;52.126;5.596;2022-11-15T09:23:50;12.20;99.90
17565;DHT22;62994;52.126;5.596;2022-11-15T09:26:18;12.20;99.90
17565;DHT22;62994;52.126;5.596;2022-11-15T09:28:46;12.20;99.90
17565;DHT22;62994;52.126;5.596;2022-11-15T09:31:13;12.30;99.90
17565;DHT22;62994;52.126;5.596;2022-11-15T09:33:43;12.30;99.90
17565;DHT22;62994;52.126;5.596;2022-11-15T09:36:10;12.30;99.90
17565;DHT22;62994;52.126;5.596;2022-11-15T09:38:39;12.30;99.90
17565;DHT22;62994;52.126;5.596;2022-11-15T09:44:35;12.30;99.90
17565;DHT22;62994;52.126;5.596;2022-11-15T09:47:17;12.30;99.90
17565;DHT22;62994;52.126;5.596;2022-11-15T09:49:51;12.30;99.90
17565;DHT22;62994;52.126;5.596;2022-11-15T09:52:19;12.40;99.90
17565;DHT22;62994;52.126;5.596;2022-11-15T09:54:50;12.40;99.90
17565;DHT22;62994;52.126;5.596;2022-11-15T09:57:21;12.40;99.90
17565;DHT22;62994;52.126;5.596;2022-11-15T09:59:58;12.40;99.90
17565;DHT22;62994;52.126;5.596;2022-11-15T10:02:51;12.40;99.90
17565;DHT22;62994;52.126;5.596;2022-11-15T10:05:23;12.40;99.90
17565;DHT22;62994;52.126;5.596;2022-11-15T10:07:57;12.50;99.90
17565;DHT22;62994;52.126;5.596;2022-11-15T10:10:32;12.50;99.90
17565;DHT22;62994;52.126;5.596;2022-11-15T10:13:02;12.50;99.90
17565;DHT22;62994;52.126;5.596;2022-11-15T10:15:30;12.50;99.90
17565;DHT22;62994;52.126;5.596;2022-11-15T10:18:09;12.60;99.90
17565;DHT22;62994;52.126;5.596;2022-11-15T10:20:47;12.60;99.90
17565;DHT22;62994;52.126;5.596;2022-11-15T10:23:16;12.60;99.90
17565;DHT22;62994;52.126;5.596;2022-11-15T10:25:45;12.70;99.90
17565;DHT22;62994;52.126;5.596;2022-11-15T10:28:15;12.70;99.90
17565;DHT22;62994;52.126;5.596;2022-11-15T10:30:44;12.70;99.90
17565;DHT22;62994;52.126;5.596;2022-11-15T10:33:19;12.70;99.90
17565;DHT22;62994;52.126;5.596;2022-11-15T10:35:48;12.70;99.90
17565;DHT22;62994;52.126;5.596;2022-11-15T10:38:15;12.80;99.90
17565;DHT22;62994;52.126;5.596;2022-11-15T10:40:42;12.80;99.90
17565;DHT22;62994;52.126;5.596;2022-11-15T10:43:16;12.80;99.90
17565;DHT22;62994;52.126;5.596;2022-11-15T10:45:44;12.90;99.90
17565;DHT22;62994;52.126;5.596;2022-11-15T10:48:24;12.90;99.90
17565;DHT22;62994;52.126;5.596;2022-11-15T10:50:52;12.90;99.90
17565;DHT22;62994;52.126;5.596;2022-11-15T10:53:27;13.00;99.90
17565;DHT22;62994;52.126;5.596;2022-11-15T10:55:58;12.90;99.90
17565;DHT22;62994;52.126;5.596;2022-11-15T10:58:34;12.90;99.90
17565;DHT22;62994;52.126;5.596;2022-11-15T11:01:13;13.00;99.90
17565;DHT22;62994;52.126;5.596;2022-11-15T11:03:42;13.00;99.90
17565;DHT22;62994;52.126;5.596;2022-11-15T11:06:12;13.00;99.90
17565;DHT22;62994;52.126;5.596;2022-11-15T11:08:39;13.00;99.90
17565;DHT22;62994;52.126;5.596;2022-11-15T11:11:07;13.00;99.90
17565;DHT22;62994;52.126;5.596;2022-11-15T11:13:37;13.00;99.90
17565;DHT22;62994;52.126;5.596;2022-11-15T11:16:37;13.00;99.90
17565;DHT22;62994;52.126;5.596;2022-11-15T11:19:29;13.10;99.90
17565;DHT22;62994;52.126;5.596;2022-11-15T11:22:16;13.10;99.90
17565;DHT22;62994;52.126;5.596;2022-11-15T11:24:49;13.10;99.90
17565;DHT22;62994;52.126;5.596;2022-11-15T11:27:25;13.10;99.90
17565;DHT22;62994;52.126;5.596;2022-11-15T11:30:08;13.10;99.90
17565;DHT22;62994;52.126;5.596;2022-11-15T11:33:00;13.20;99.90
17565;DHT22;62994;52.126;5.596;2022-11-15T11:35:32;13.20;99.90
17565;DHT22;62994;52.126;5.596;2022-11-15T11:41:02;13.20;99.90
17565;DHT22;62994;52.126;5.596;2022-11-15T11:43:34;13.30;99.90
17565;DHT22;62994;52.126;5.596;2022-11-15T11:46:14;13.30;99.90
17565;DHT22;62994;52.126;5.596;2022-11-15T11:48:48;13.30;99.90
17565;DHT22;62994;52.126;5.596;2022-11-15T11:51:20;13.30;99.90
17565;DHT22;62994;52.126;5.596;2022-11-15T11:53:53;13.30;99.90
17565;DHT22;62994;52.126;5.596;2022-11-15T11:56:27;13.30;99.90
17565;DHT22;62994;52.126;5.596;2022-11-15T11:59:00;13.30;99.90
17565;DHT22;62994;52.126;5.596;2022-11-15T12:01:32;13.30;99.90
17565;DHT22;62994;52.126;5.596;2022-11-15T12:04:04;13.30;99.90
17565;DHT22;62994;52.126;5.596;2022-11-15T12:06:38;13.30;99.90
17565;DHT22;62994;52.126;5.596;2022-11-15T12:09:14;13.30;99.90
17565;DHT22;62994;52.126;5.596;2022-11-15T12:11:50;13.40;99.90
17565;DHT22;62994;52.126;5.596;2022-11-15T12:14:26;13.40;99.90
17565;DHT22;62994;52.126;5.596;2022-11-15T12:16:55;13.50;99.90
17565;DHT22;62994;52.126;5.596;2022-11-15T12:19:23;13.50;99.90
17565;DHT22;62994;52.126;5.596;2022-11-15T12:21:58;13.50;99.90
17565;DHT22;62994;52.126;5.596;2022-11-15T12:24:30;13.60;99.90
17565;DHT22;62994;52.126;5.596;2022-11-15T12:27:01;13.60;99.90
17565;DHT22;62994;52.126;5.596;2022-11-15T12:29:35;13.70;99.90
17565;DHT22;62994;52.126;5.596;2022-11-15T12:32:11;13.70;99.90
17565;DHT22;62994;52.126;5.596;2022-11-15T12:34:43;13.70;99.90
17565;DHT22;62994;52.126;5.596;2022-11-15T12:40:31;13.60;99.90
17565;DHT22;62994;52.126;5.596;2022-11-15T12:43:04;13.60;99.90
17565;DHT22;62994;52.126;5.596;2022-11-15T12:45:33;13.60;99.90
17565;DHT22;62994;52.126;5.596;2022-11-15T12:51:06;13.70;99.90
17565;DHT22;62994;52.126;5.596;2022-11-15T12:53:34;13.70;99.90
17565;DHT22;62994;52.126;5.596;2022-11-15T12:56:20;13.80;99.90
17565;DHT22;62994;52.126;5.596;2022-11-15T12:58:50;13.80;99.90
17565;DHT22;62994;52.126;5.596;2022-11-15T13:04:23;13.80;99.90
17565;DHT22;62994;52.126;5.596;2022-11-15T13:06:54;13.90;99.90
17565;DHT22;62994;52.126;5.596;2022-11-15T13:12:56;13.90;99.90
17565;DHT22;62994;52.126;5.596;2022-11-15T13:15:56;13.90;99.90
17565;DHT22;62994;52.126;5.596;2022-11-15T13:18:32;13.90;99.90
17565;DHT22;62994;52.126;5.596;2022-11-15T13:21:00;13.90;99.90
17565;DHT22;62994;52.126;5.596;2022-11-15T13:23:29;13.90;99.90
17565;DHT22;62994;52.126;5.596;2022-11-15T13:26:08;13.90;99.90
17565;DHT22;62994;52.126;5.596;2022-11-15T13:28:38;13.90;99.90
17565;DHT22;62994;52.126;5.596;2022-11-15T13:31:23;13.90;99.90
17565;DHT22;62994;52.126;5.596;2022-11-15T13:33:51;13.90;99.90
17565;DHT22;62994;52.126;5.596;2022-11-15T13:36:22;13.90;99.90
17565;DHT22;62994;52.126;5.596;2022-11-15T13:38:59;13.90;99.90
17565;DHT22;62994;52.126;5.596;2022-11-15T13:41:28;14.00;99.90
17565;DHT22;62994;52.126;5.596;2022-11-15T13:43:56;13.90;99.90
17565;DHT22;62994;52.126;5.596;2022-11-15T13:46:25;13.90;99.90
17565;DHT22;62994;52.126;5.596;2022-11-15T13:48:55;13.90;99.90
17565;DHT22;62994;52.126;5.596;2022-11-15T13:51:26;13.90;99.90
17565;DHT22;62994;52.126;5.596;2022-11-15T13:53:58;13.80;99.90
17565;DHT22;62994;52.126;5.596;2022-11-15T13:56:28;13.70;99.90
17565;DHT22;62994;52.126;5.596;2022-11-15T13:58:57;13.60;99.90
17565;DHT22;62994;52.126;5.596;2022-11-15T14:01:27;13.60;99.90
17565;DHT22;62994;52.126;5.596;2022-11-15T14:03:58;13.60;99.90
17565;DHT22;62994;52.126;5.596;2022-11-15T14:06:28;13.60;99.90
17565;DHT22;62994;52.126;5.596;2022-11-15T14:09:31;13.50;99.90
17565;DHT22;62994;52.126;5.596;2022-11-15T14:11:59;13.50;99.90
17565;DHT22;62994;52.126;5.596;2022-11-15T14:14:28;13.40;99.90
17565;DHT22;62994;52.126;5.596;2022-11-15T14:16:56;13.40;99.90
17565;DHT22;62994;52.126;5.596;2022-11-15T14:19:38;13.40;99.90
17565;DHT22;62994;52.126;5.596;2022-11-15T14:22:18;13.40;99.90
17565;DHT22;62994;52.126;5.596;2022-11-15T14:25:05;13.30;99.90
17565;DHT22;62994;52.126;5.596;2022-11-15T14:27:33;13.30;99.90
17565;DHT22;62994;52.126;5.596;2022-11-15T14:30:01;13.30;99.90
17565;DHT22;62994;52.126;5.596;2022-11-15T14:32:29;13.20;99.90
17565;DHT22;62994;52.126;5.596;2022-11-15T14:34:58;13.30;99.90
17565;DHT22;62994;52.126;5.596;2022-11-15T14:37:27;13.20;99.90
17565;DHT22;62994;52.126;5.596;2022-11-15T14:39:55;13.20;99.90
17565;DHT22;62994;52.126;5.596;2022-11-15T14:42:23;13.20;99.90
17565;DHT22;62994;52.126;5.596;2022-11-15T14:44:50;13.20;99.90
17565;DHT22;62994;52.126;5.596;2022-11-15T14:47:18;13.20;99.90
17565;DHT22;62994;52.126;5.596;2022-11-15T14:49:45;13.10;99.90
17565;DHT22;62994;52.126;5.596;2022-11-15T14:52:28;13.10;99.90
17565;DHT22;62994;52.126;5.596;2022-11-15T14:54:57;13.10;99.90
17565;DHT22;62994;52.126;5.596;2022-11-15T14:57:24;13.00;99.90
17565;DHT22;62994;52.126;5.596;2022-11-15T14:59:51;13.00;99.90
17565;DHT22;62994;52.126;5.596;2022-11-15T15:02:20;13.00;99.90
17565;DHT22;62994;52.126;5.596;2022-11-15T15:04:48;12.90;99.90
17565;DHT22;62994;52.126;5.596;2022-11-15T15:07:15;13.00;99.90
17565;DHT22;62994;52.126;5.596;2022-11-15T15:09:43;12.90;99.90
17565;DHT22;62994;52.126;5.596;2022-11-15T15:12:17;12.90;99.90
17565;DHT22;62994;52.126;5.596;2022-11-15T15:14:45;12.90;99.90
17565;DHT22;62994;52.126;5.596;2022-11-15T15:17:13;12.90;99.90
17565;DHT22;62994;52.126;5.596;2022-11-15T15:19:40;12.90;99.90
17565;DHT22;62994;52.126;5.596;2022-11-15T15:22:11;12.90;99.90
17565;DHT22;62994;52.126;5.596;2022-11-15T15:24:41;12.90;99.90
17565;DHT22;62994;52.126;5.596;2022-11-15T15:27:08;12.90;99.90
17565;DHT22;62994;52.126;5.596;2022-11-15T15:29:37;12.90;99.90
17565;DHT22;62994;52.126;5.596;2022-11-15T15:32:04;12.90;99.90
17565;DHT22;62994;52.126;5.596;2022-11-15T15:34:31;12.90;99.90
17565;DHT22;62994;52.126;5.596;2022-11-15T15:37:17;12.90;99.90
17565;DHT22;62994;52.126;5.596;2022-11-15T15:39:45;12.90;99.90
17565;DHT22;62994;52.126;5.596;2022-11-15T15:42:12;12.90;99.90
17565;DHT22;62994;52.126;5.596;2022-11-15T15:44:41;12.90;99.90
17565;DHT22;62994;52.126;5.596;2022-11-15T15:47:11;12.90;99.90
17565;DHT22;62994;52.126;5.596;2022-11-15T15:49:38;12.90;99.90
17565;DHT22;62994;52.126;5.596;2022-11-15T15:52:05;12.90;99.90
17565;DHT22;62994;52.126;5.596;2022-11-15T15:54:32;12.90;99.90
17565;DHT22;62994;52.126;5.596;2022-11-15T15:56:59;12.90;99.90
17565;DHT22;62994;52.126;5.596;2022-11-15T15:59:26;13.10;99.90
17565;DHT22;62994;52.126;5.596;2022-11-15T16:01:54;13.00;99.90
17565;DHT22;62994;52.126;5.596;2022-11-15T16:04:21;13.00;99.90
17565;DHT22;62994;52.126;5.596;2022-11-15T16:06:48;13.00;99.90
17565;DHT22;62994;52.126;5.596;2022-11-15T16:09:18;13.00;99.90
17565;DHT22;62994;52.126;5.596;2022-11-15T16:12:06;13.00;99.90
17565;DHT22;62994;52.126;5.596;2022-11-15T16:14:33;13.00;99.90
17565;DHT22;62994;52.126;5.596;2022-11-15T16:17:01;13.00;99.90
17565;DHT22;62994;52.126;5.596;2022-11-15T16:19:28;13.00;99.90
17565;DHT22;62994;52.126;5.596;2022-11-15T16:21:55;13.00;99.90